createdAt,value
2023-03-26T00:01:21.588Z,2.40
2023-03-26T00:03:53.415Z,2.50
2023-03-26T00:06:22.573Z,2.05
2023-03-26T00:08:50.006Z,2.35
2023-03-26T00:11:17.099Z,2.50
2023-03-26T00:13:46.744Z,2.00
2023-03-26T00:16:14.309Z,2.15
2023-03-26T00:18:42.528Z,2.17
2023-03-26T00:21:10.548Z,1.90
2023-03-26T00:23:38.666Z,1.92
2023-03-26T00:26:10.416Z,2.00
2023-03-26T00:28:38.218Z,2.10
2023-03-26T00:31:05.684Z,1.77
2023-03-26T00:36:02.475Z,1.73
2023-03-26T00:38:30.950Z,1.55
2023-03-26T00:40:59.492Z,2.15
2023-03-26T00:43:26.576Z,2.00
2023-03-26T00:45:54.279Z,1.98
2023-03-26T00:48:31.366Z,2.00
2023-03-26T00:51:05.561Z,2.00
2023-03-26T00:56:00.461Z,2.08
2023-03-26T00:58:27.283Z,2.15
2023-03-26T01:00:57.772Z,2.33
2023-03-26T01:03:29.427Z,1.77
2023-03-26T01:06:02.659Z,2.40
2023-03-26T01:08:30.628Z,2.10
2023-03-26T01:11:03.023Z,1.90
2023-03-26T01:13:32.021Z,2.05
2023-03-26T01:16:01.861Z,2.00
2023-03-26T01:18:33.922Z,2.00
2023-03-26T01:21:05.389Z,2.55
2023-03-26T01:23:40.475Z,2.58
2023-03-26T01:26:27.290Z,2.58
2023-03-26T01:28:55.940Z,2.47
2023-03-26T01:31:36.965Z,2.45
2023-03-26T01:34:12.424Z,2.28
2023-03-26T01:36:48.941Z,2.92
2023-03-26T01:39:19.681Z,2.28
2023-03-26T01:41:50.113Z,2.60
2023-03-26T01:44:25.875Z,2.28
2023-03-26T01:46:52.940Z,2.35
2023-03-26T01:49:19.652Z,2.67
2023-03-26T01:51:47.655Z,2.78
2023-03-26T01:54:16.921Z,2.13
2023-03-26T01:56:43.330Z,2.17
2023-03-26T01:59:16.606Z,2.55
2023-03-26T02:02:04.693Z,2.80
2023-03-26T02:04:41.028Z,2.72
2023-03-26T02:07:11.565Z,2.63
2023-03-26T02:09:42.444Z,2.60
2023-03-26T02:12:09.564Z,2.13
2023-03-26T02:14:36.215Z,2.63
2023-03-26T02:17:02.777Z,3.00
2023-03-26T02:19:29.891Z,2.80
2023-03-26T02:21:59.759Z,2.97
2023-03-26T02:24:27.544Z,2.63
2023-03-26T02:26:58.043Z,2.72
2023-03-26T02:29:26.645Z,3.15
2023-03-26T02:31:53.740Z,2.88
2023-03-26T02:34:20.344Z,2.90
2023-03-26T02:36:52.265Z,2.88
2023-03-26T02:39:19.010Z,2.78
2023-03-26T02:41:53.614Z,3.13
2023-03-26T02:44:20.569Z,2.72
2023-03-26T02:46:59.037Z,2.95
2023-03-26T02:49:51.414Z,3.30
2023-03-26T02:52:27.082Z,2.72
2023-03-26T02:54:56.402Z,2.55
2023-03-26T02:57:24.817Z,2.88
2023-03-26T03:00:13.176Z,2.83
2023-03-26T03:02:47.815Z,3.20
2023-03-26T03:05:31.488Z,2.88
2023-03-26T03:08:19.763Z,2.85
2023-03-26T03:11:00.941Z,3.40
2023-03-26T03:13:38.229Z,2.92
2023-03-26T03:16:04.795Z,3.22
2023-03-26T03:18:31.259Z,3.10
2023-03-26T03:20:57.756Z,3.25
2023-03-26T03:23:24.349Z,3.45
2023-03-26T03:25:57.373Z,2.65
2023-03-26T03:28:25.114Z,3.28
2023-03-26T03:30:53.238Z,3.30
2023-03-26T03:33:28.407Z,2.90
2023-03-26T03:35:55.016Z,3.38
2023-03-26T03:40:51.078Z,3.72
2023-03-26T03:46:01.179Z,3.03
2023-03-26T03:48:41.481Z,3.38
2023-03-26T03:51:08.528Z,3.45
2023-03-26T03:53:56.637Z,3.53
2023-03-26T03:56:55.163Z,3.70
2023-03-26T03:59:49.167Z,3.28
2023-03-26T04:02:34.718Z,3.20
2023-03-26T04:05:05.529Z,3.28
2023-03-26T04:07:32.678Z,3.15
2023-03-26T04:10:05.915Z,3.42
2023-03-26T04:12:58.376Z,2.90
2023-03-26T04:15:44.465Z,3.30
2023-03-26T04:18:11.745Z,3.20
2023-03-26T04:20:46.273Z,3.40
2023-03-26T04:23:18.199Z,3.13
2023-03-26T04:25:50.139Z,3.42
2023-03-26T04:28:28.373Z,3.80
2023-03-26T04:31:17.727Z,3.63
2023-03-26T04:33:46.802Z,3.78
2023-03-26T04:36:16.558Z,3.13
2023-03-26T04:41:14.384Z,3.17
2023-03-26T04:43:53.959Z,3.47
2023-03-26T04:46:43.597Z,3.47
2023-03-26T04:49:17.417Z,3.50
2023-03-26T04:51:46.213Z,3.30
2023-03-26T04:54:32.553Z,3.47
2023-03-26T04:57:04.898Z,3.13
2023-03-26T04:59:51.785Z,3.22
2023-03-26T05:02:18.879Z,3.88
2023-03-26T05:04:51.472Z,3.45
2023-03-26T05:09:48.588Z,3.67
2023-03-26T05:15:03.595Z,3.20
2023-03-26T05:17:55.426Z,3.13
2023-03-26T05:20:29.573Z,3.20
2023-03-26T05:22:56.389Z,3.22
2023-03-26T05:25:28.895Z,3.60
2023-03-26T05:30:26.664Z,3.42
2023-03-26T05:32:57.958Z,3.38
2023-03-26T05:35:29.966Z,3.35
2023-03-26T05:37:57.384Z,3.50
2023-03-26T05:40:25.298Z,3.67
2023-03-26T05:43:00.108Z,3.65
2023-03-26T05:45:35.183Z,3.30
2023-03-26T05:48:14.267Z,3.75
2023-03-26T05:50:40.917Z,3.70
2023-03-26T05:53:07.595Z,4.07
2023-03-26T05:55:58.506Z,3.60
2023-03-26T05:58:43.616Z,3.35
2023-03-26T06:01:29.324Z,3.53
2023-03-26T06:04:16.985Z,3.20
2023-03-26T06:07:12.519Z,3.75
2023-03-26T06:09:42.599Z,3.47
2023-03-26T06:12:10.282Z,3.92
2023-03-26T06:14:38.134Z,3.30
2023-03-26T06:17:14.107Z,3.30
2023-03-26T06:19:59.180Z,3.65
2023-03-26T06:22:35.013Z,3.42
2023-03-26T06:25:27.256Z,3.25
2023-03-26T06:28:06.016Z,3.50
2023-03-26T06:31:01.718Z,3.30
2023-03-26T06:33:33.653Z,3.50
2023-03-26T06:36:00.428Z,3.70
2023-03-26T06:38:27.311Z,4.00
2023-03-26T06:40:54.173Z,3.35
2023-03-26T06:43:41.311Z,3.47
2023-03-26T06:46:33.891Z,3.25
2023-03-26T06:49:36.010Z,3.30
2023-03-26T06:52:21.280Z,3.42
2023-03-26T06:55:03.101Z,3.05
2023-03-26T06:57:50.773Z,3.20
2023-03-26T07:00:40.798Z,3.45
2023-03-26T07:03:25.806Z,3.10
2023-03-26T07:06:10.765Z,3.22
2023-03-26T07:09:12.375Z,3.13
2023-03-26T07:11:41.517Z,2.95
2023-03-26T07:14:27.951Z,2.85
2023-03-26T07:17:29.824Z,3.33
2023-03-26T07:20:13.109Z,3.53
2023-03-26T07:22:41.095Z,3.28
2023-03-26T07:25:27.609Z,3.40
2023-03-26T07:28:13.797Z,2.92
2023-03-26T07:31:11.230Z,3.00
2023-03-26T07:33:54.872Z,3.08
2023-03-26T07:36:43.407Z,2.88
2023-03-26T07:39:47.609Z,3.70
2023-03-26T07:42:46.166Z,3.55
2023-03-26T07:45:34.111Z,3.92
2023-03-26T07:48:37.594Z,4.00
2023-03-26T07:51:14.605Z,3.67
2023-03-26T07:54:09.917Z,3.53
2023-03-26T07:56:59.381Z,4.05
2023-03-26T08:00:09.975Z,3.70
2023-03-26T08:03:10.641Z,4.55
2023-03-26T08:06:19.030Z,3.88
2023-03-26T08:09:02.681Z,4.43
2023-03-26T08:11:51.207Z,5.25
2023-03-26T08:14:40.978Z,4.30
2023-03-26T08:17:13.193Z,4.72
2023-03-26T08:19:58.360Z,4.88
2023-03-26T08:22:27.716Z,3.15
2023-03-26T08:25:10.906Z,3.03
2023-03-26T08:27:43.568Z,2.92
2023-03-26T08:30:23.897Z,2.50
2023-03-26T08:32:58.736Z,2.58
2023-03-26T08:35:25.876Z,2.40
2023-03-26T08:37:53.200Z,2.60
2023-03-26T08:42:45.971Z,2.67
2023-03-26T08:45:12.644Z,2.45
2023-03-26T08:47:59.124Z,2.47
2023-03-26T08:50:44.522Z,2.75
2023-03-26T08:53:29.663Z,2.42
2023-03-26T08:56:12.976Z,2.47
2023-03-26T08:59:05.301Z,2.50
2023-03-26T09:01:50.616Z,2.47
2023-03-26T09:04:17.094Z,2.10
2023-03-26T09:07:13.189Z,2.58
2023-03-26T09:10:02.905Z,2.55
2023-03-26T09:12:32.366Z,2.47
2023-03-26T09:15:11.304Z,2.13
2023-03-26T09:17:58.242Z,2.60
2023-03-26T09:20:43.835Z,2.30
2023-03-26T09:25:41.495Z,2.42
2023-03-26T09:28:26.161Z,2.90
2023-03-26T09:30:58.257Z,2.72
2023-03-26T09:33:59.352Z,2.15
2023-03-26T09:36:38.455Z,2.53
2023-03-26T09:39:09.344Z,2.10
2023-03-26T09:41:41.141Z,2.33
2023-03-26T09:44:19.511Z,2.70
2023-03-26T09:46:48.939Z,2.22
2023-03-26T09:49:15.796Z,2.17
2023-03-26T09:51:45.197Z,2.38
2023-03-26T09:54:30.465Z,2.30
2023-03-26T09:57:07.988Z,2.25
2023-03-26T10:00:00.489Z,2.40
2023-03-26T10:02:46.067Z,2.40
2023-03-26T10:05:34.252Z,2.30
2023-03-26T10:08:01.428Z,2.30
2023-03-26T10:10:47.146Z,2.13
2023-03-26T10:13:25.622Z,2.40
2023-03-26T10:15:59.706Z,2.47
2023-03-26T10:18:44.645Z,2.20
2023-03-26T10:21:24.957Z,2.22
2023-03-26T10:24:10.997Z,2.17
2023-03-26T10:27:08.503Z,2.45
2023-03-26T10:29:36.023Z,2.15
2023-03-26T10:32:23.029Z,2.15
2023-03-26T10:34:53.232Z,2.15
2023-03-26T10:37:34.937Z,2.28
2023-03-26T10:40:10.123Z,2.10
2023-03-26T10:42:47.554Z,2.20
2023-03-26T10:45:21.359Z,1.63
2023-03-26T10:47:52.656Z,1.70
2023-03-26T10:50:37.241Z,2.00
2023-03-26T10:53:06.914Z,2.10
2023-03-26T10:55:40.735Z,1.90
2023-03-26T10:58:17.277Z,1.80
2023-03-26T11:00:46.930Z,1.92
2023-03-26T11:03:43.815Z,1.73
2023-03-26T11:06:28.903Z,1.95
2023-03-26T11:09:14.411Z,1.60
2023-03-26T11:11:52.022Z,1.73
2023-03-26T11:14:34.302Z,1.60
2023-03-26T11:17:04.224Z,1.67
2023-03-26T11:19:30.703Z,1.50
2023-03-26T11:22:03.644Z,1.63
2023-03-26T11:24:48.748Z,1.65
2023-03-26T11:27:24.958Z,1.70
2023-03-26T11:30:07.615Z,1.70
2023-03-26T11:32:39.233Z,1.65
2023-03-26T11:35:08.300Z,1.60
2023-03-26T11:37:47.516Z,1.42
2023-03-26T11:40:21.296Z,1.80
2023-03-26T11:42:48.824Z,1.50
2023-03-26T11:45:19.936Z,1.70
2023-03-26T11:47:52.239Z,1.55
2023-03-26T11:50:21.706Z,1.70
2023-03-26T11:52:49.298Z,1.60
2023-03-26T11:55:15.900Z,2.03
2023-03-26T11:57:45.487Z,1.70
2023-03-26T12:00:17.533Z,2.40
2023-03-26T12:02:44.945Z,2.03
2023-03-26T12:05:12.083Z,1.80
2023-03-26T12:07:45.734Z,1.88
2023-03-26T12:10:25.140Z,1.98
2023-03-26T12:12:56.916Z,1.80
2023-03-26T12:15:24.399Z,1.45
2023-03-26T12:17:56.511Z,1.70
2023-03-26T12:20:25.853Z,1.77
2023-03-26T12:22:53.646Z,1.77
2023-03-26T12:25:21.597Z,1.98
2023-03-26T12:27:49.800Z,1.85
2023-03-26T12:30:20.188Z,1.75
2023-03-26T12:32:47.587Z,1.90
2023-03-26T12:37:44.529Z,1.60
2023-03-26T12:40:29.988Z,2.10
2023-03-26T12:44:55.849Z,1.80
2023-03-26T12:45:44.488Z,1.65
2023-03-26T12:48:12.842Z,1.63
2023-03-26T12:50:42.738Z,1.75
2023-03-26T12:53:19.404Z,1.80
2023-03-26T12:55:46.376Z,1.60
2023-03-26T12:58:22.053Z,2.10
2023-03-26T13:01:02.903Z,1.85
2023-03-26T13:03:43.599Z,1.90
2023-03-26T13:06:16.074Z,1.60
2023-03-26T13:08:42.478Z,1.60
2023-03-26T13:11:31.567Z,1.77
2023-03-26T13:14:11.116Z,1.55
2023-03-26T13:16:40.723Z,1.73
2023-03-26T13:19:09.967Z,1.80
2023-03-26T13:21:36.980Z,1.95
2023-03-26T13:24:18.090Z,1.60
2023-03-26T13:26:54.647Z,1.70
2023-03-26T13:29:21.001Z,1.73
2023-03-26T13:32:04.805Z,1.60
2023-03-26T13:34:34.356Z,1.65
2023-03-26T13:37:24.038Z,1.75
2023-03-26T13:40:09.283Z,1.55
2023-03-26T13:42:39.276Z,1.63
2023-03-26T13:45:22.717Z,1.42
2023-03-26T13:47:50.493Z,1.60
2023-03-26T13:50:26.148Z,1.60
2023-03-26T13:52:53.111Z,1.40
2023-03-26T13:55:22.276Z,1.50
2023-03-26T13:57:55.130Z,1.40
2023-03-26T14:00:42.120Z,1.50
2023-03-26T14:03:13.328Z,1.80
2023-03-26T14:05:44.424Z,1.30
2023-03-26T14:08:14.920Z,1.50
2023-03-26T14:10:44.078Z,1.40
2023-03-26T14:13:10.691Z,1.73
2023-03-26T14:15:44.495Z,1.80
2023-03-26T14:18:30.261Z,1.40
2023-03-26T14:20:59.706Z,1.40
2023-03-26T14:23:29.232Z,1.50
2023-03-26T14:25:56.257Z,1.42
2023-03-26T14:28:28.983Z,1.67
2023-03-26T14:31:08.070Z,1.45
2023-03-26T14:33:40.817Z,1.42
2023-03-26T14:36:16.621Z,1.30
2023-03-26T14:39:01.615Z,1.50
2023-03-26T14:41:46.674Z,1.40
2023-03-26T14:44:48.216Z,1.20
2023-03-26T14:47:23.500Z,1.30
2023-03-26T14:49:59.057Z,1.15
2023-03-26T14:52:39.431Z,1.50
2023-03-26T14:55:12.813Z,1.23
2023-03-26T14:57:58.169Z,1.40
2023-03-26T15:00:24.675Z,1.42
2023-03-26T15:03:13.547Z,1.27
2023-03-26T15:05:58.846Z,1.40
2023-03-26T15:08:48.618Z,1.27
2023-03-26T15:11:34.162Z,1.20
2023-03-26T15:16:48.863Z,1.30
2023-03-26T15:19:30.606Z,1.48
2023-03-26T15:22:15.478Z,1.42
2023-03-26T15:25:05.146Z,1.40
2023-03-26T15:27:47.332Z,1.25
2023-03-26T15:30:16.783Z,1.25
2023-03-26T15:33:05.227Z,1.30
2023-03-26T15:35:31.795Z,1.02
2023-03-26T15:38:13.287Z,1.40
2023-03-26T15:40:59.870Z,1.30
2023-03-26T15:43:28.675Z,1.15
2023-03-26T15:46:17.870Z,1.20
2023-03-26T15:48:54.129Z,1.20
2023-03-26T15:51:31.411Z,1.33
2023-03-26T15:54:16.421Z,1.05
2023-03-26T15:56:42.838Z,1.10
2023-03-26T15:59:23.447Z,1.10
2023-03-26T16:02:03.730Z,1.10
2023-03-26T16:04:39.467Z,1.30
2023-03-26T16:07:39.042Z,1.30
2023-03-26T16:10:05.536Z,1.20
2023-03-26T16:12:34.024Z,1.17
2023-03-26T16:15:07.325Z,1.30
2023-03-26T16:17:54.691Z,1.00
2023-03-26T16:20:31.441Z,1.10
2023-03-26T16:23:03.483Z,1.10
2023-03-26T16:25:34.680Z,1.20
2023-03-26T16:28:12.976Z,1.30
2023-03-26T16:30:39.478Z,1.30
2023-03-26T16:33:12.680Z,1.10
2023-03-26T16:35:42.407Z,1.25
2023-03-26T16:38:14.506Z,1.40
2023-03-26T16:41:00.342Z,1.25
2023-03-26T16:43:39.376Z,1.42
2023-03-26T16:46:11.146Z,1.58
2023-03-26T16:48:41.564Z,1.65
2023-03-26T16:51:16.965Z,1.80
2023-03-26T16:54:02.382Z,1.60
2023-03-26T16:56:33.862Z,1.73
2023-03-26T16:59:06.309Z,1.45
2023-03-26T17:01:42.837Z,1.27
2023-03-26T17:04:20.497Z,1.65
2023-03-26T17:07:13.620Z,1.40
2023-03-26T17:09:44.005Z,1.60
2023-03-26T17:12:20.026Z,1.40
2023-03-26T17:14:55.684Z,1.50
2023-03-26T17:17:31.441Z,1.48
2023-03-26T17:20:16.598Z,1.42
2023-03-26T17:22:46.122Z,1.40
2023-03-26T17:25:34.903Z,1.60
2023-03-26T17:28:20.638Z,1.67
2023-03-26T17:31:05.731Z,1.42
2023-03-26T17:33:34.677Z,1.10
2023-03-26T17:36:13.129Z,1.40
2023-03-26T17:38:39.591Z,1.30
2023-03-26T17:41:07.311Z,1.13
2023-03-26T17:43:36.333Z,1.40
2023-03-26T17:46:04.473Z,1.20
2023-03-26T17:48:35.384Z,1.40
2023-03-26T17:51:03.976Z,1.70
2023-03-26T17:53:31.595Z,1.58
2023-03-26T17:56:03.154Z,1.63
2023-03-26T17:58:29.540Z,1.80
2023-03-26T18:01:03.292Z,1.63
2023-03-26T18:03:34.061Z,1.65
2023-03-26T18:06:05.378Z,1.80
2023-03-26T18:08:37.619Z,1.55
2023-03-26T18:11:08.019Z,1.90
2023-03-26T18:13:53.232Z,1.80
2023-03-26T18:16:20.863Z,1.75
2023-03-26T18:18:51.667Z,1.80
2023-03-26T18:21:23.933Z,1.60
2023-03-26T18:23:51.125Z,1.70
2023-03-26T18:26:32.031Z,1.98
2023-03-26T18:29:13.435Z,2.20
2023-03-26T18:31:43.514Z,1.95
2023-03-26T18:34:15.050Z,2.00
2023-03-26T18:36:41.533Z,1.70
2023-03-26T18:39:11.726Z,1.83
2023-03-26T18:41:41.634Z,1.90
2023-03-26T18:44:13.176Z,1.90
2023-03-26T18:46:39.638Z,1.85
2023-03-26T18:49:07.021Z,1.88
2023-03-26T18:51:38.286Z,1.95
2023-03-26T18:54:13.136Z,1.90
2023-03-26T18:56:41.703Z,1.75
2023-03-26T18:59:32.567Z,1.70
2023-03-26T19:02:02.346Z,2.13
2023-03-26T19:04:31.739Z,1.92
2023-03-26T19:06:58.382Z,1.90
2023-03-26T19:09:31.948Z,1.90
2023-03-26T19:12:04.446Z,1.70
2023-03-26T19:14:35.277Z,1.80
2023-03-26T19:17:03.488Z,1.95
2023-03-26T19:19:32.060Z,1.80
2023-03-26T19:21:59.718Z,1.95
2023-03-26T19:24:26.997Z,1.92
2023-03-26T19:26:53.550Z,1.80
2023-03-26T19:29:27.167Z,1.48
2023-03-26T19:32:00.883Z,1.80
2023-03-26T19:34:39.678Z,1.58
2023-03-26T19:37:25.668Z,1.65
2023-03-26T19:40:01.293Z,1.60
2023-03-26T19:42:43.353Z,1.77
2023-03-26T19:45:15.803Z,1.50
2023-03-26T19:47:48.592Z,1.52
2023-03-26T19:50:29.288Z,1.55
2023-03-26T19:53:15.342Z,1.70
2023-03-26T19:55:52.319Z,1.60
2023-03-26T19:58:19.636Z,1.75
2023-03-26T20:00:46.094Z,1.60
2023-03-26T20:03:12.680Z,1.73
2023-03-26T20:05:39.152Z,1.52
2023-03-26T20:08:13.385Z,1.50
2023-03-26T20:10:39.904Z,1.50
2023-03-26T20:13:24.649Z,1.20
2023-03-26T20:16:05.815Z,1.75
2023-03-26T20:18:33.763Z,1.60
2023-03-26T20:21:00.510Z,1.67
2023-03-26T20:23:29.042Z,1.60
2023-03-26T20:25:55.887Z,1.25
2023-03-26T20:28:24.317Z,1.60
2023-03-26T20:30:51.667Z,1.33
2023-03-26T20:33:20.284Z,1.73
2023-03-26T20:35:47.292Z,1.65
2023-03-26T20:38:13.817Z,1.52
2023-03-26T20:40:40.480Z,1.67
2023-03-26T20:43:12.051Z,1.50
2023-03-26T20:45:38.727Z,1.27
2023-03-26T20:48:05.252Z,1.70
2023-03-26T20:50:35.693Z,1.67
2023-03-26T20:53:02.324Z,1.20
2023-03-26T20:55:28.831Z,1.17
2023-03-26T20:57:55.324Z,1.50
2023-03-26T21:00:24.837Z,1.42
2023-03-26T21:02:55.836Z,1.50
2023-03-26T21:05:26.837Z,1.45
2023-03-26T21:07:53.967Z,1.40
2023-03-26T21:10:20.905Z,1.45
2023-03-26T21:12:50.622Z,1.50
2023-03-26T21:15:23.395Z,1.30
2023-03-26T21:17:51.599Z,1.55
2023-03-26T21:20:18.871Z,1.48
2023-03-26T21:22:46.279Z,1.38
2023-03-26T21:25:21.775Z,1.63
2023-03-26T21:27:51.519Z,1.63
2023-03-26T21:30:18.143Z,1.80
2023-03-26T21:32:45.671Z,1.25
2023-03-26T21:35:16.407Z,1.63
2023-03-26T21:37:44.377Z,1.40
2023-03-26T21:40:14.816Z,1.88
2023-03-26T21:42:42.081Z,1.88
2023-03-26T21:45:08.777Z,1.63
2023-03-26T21:47:35.408Z,1.30
2023-03-26T21:50:02.332Z,1.50
2023-03-26T21:52:30.098Z,1.40
2023-03-26T21:54:58.085Z,1.30
2023-03-26T21:57:34.979Z,1.30
2023-03-26T22:00:14.916Z,1.48
2023-03-26T22:02:48.095Z,1.60
2023-03-26T22:05:16.221Z,1.67
2023-03-26T22:07:42.586Z,1.63
2023-03-26T22:10:09.071Z,1.88
2023-03-26T22:12:35.970Z,1.50
2023-03-26T22:15:04.512Z,1.35
2023-03-26T22:17:32.946Z,1.98
2023-03-26T22:20:01.186Z,1.58
2023-03-26T22:22:28.595Z,1.33
2023-03-26T22:24:55.066Z,1.30
2023-03-26T22:27:21.547Z,1.35
2023-03-26T22:29:48.215Z,1.20
2023-03-26T22:32:14.745Z,1.77
2023-03-26T22:34:41.903Z,1.20
2023-03-26T22:37:08.342Z,1.67
2023-03-26T22:39:34.881Z,1.30
2023-03-26T22:42:03.732Z,1.30
2023-03-26T22:44:30.302Z,1.55
2023-03-26T22:46:56.960Z,1.30
2023-03-26T22:49:26.073Z,1.27
2023-03-26T22:51:52.882Z,1.40
2023-03-26T22:54:19.350Z,1.25
2023-03-26T22:56:45.862Z,1.40
2023-03-26T22:59:13.139Z,1.08
2023-03-26T23:01:39.961Z,1.40
2023-03-26T23:04:07.008Z,1.58
2023-03-26T23:06:33.556Z,1.30
2023-03-26T23:08:59.937Z,1.48
2023-03-26T23:11:26.727Z,1.33
2023-03-26T23:13:53.135Z,1.30
2023-03-26T23:16:21.466Z,1.25
2023-03-26T23:18:48.348Z,1.27
2023-03-26T23:21:16.031Z,1.17
2023-03-26T23:23:42.767Z,1.50
2023-03-26T23:26:09.631Z,1.42
2023-03-26T23:28:36.287Z,1.77
2023-03-26T23:31:04.364Z,2.03
2023-03-26T23:33:32.099Z,2.38
2023-03-26T23:35:59.954Z,1.80
2023-03-26T23:38:29.045Z,1.75
2023-03-26T23:41:10.125Z,1.60
2023-03-26T23:43:39.614Z,1.48
2023-03-26T23:46:23.754Z,1.15
2023-03-26T23:48:54.880Z,1.52
2023-03-26T23:51:22.262Z,1.10
2023-03-26T23:53:49.301Z,1.23
2023-03-26T23:56:16.290Z,1.17
2023-03-26T23:58:42.975Z,1.40
